Data for 12/23/2008

Time Sea-Level Adjusted Pressure Absolute Pressure Temperature Relative Humidity Dew Point   
(mb) (inHg) (mb) (inHg) (C) (F) (%) (C) (F)
00:05 1005 29.68 834 24.63 -18 -0.4 82 -20.4 -4.7
00:10 1005 29.68 835 24.66 -18.1 -0.5 83 -20.4 -4.6
00:15 1005 29.68 835 24.66 -18.1 -0.5 82 -20.4 -4.7
00:20 1005 29.68 835 24.66 -18.1 -0.6 83 -20.3 -4.6
00:25 1005 29.68 835 24.66 -18 -0.4 82 -20.4 -4.8
00:30 1005 29.68 835 24.66 -18.1 -0.6 82 -20.4 -4.8
00:35 1005 29.68 835 24.66 -18.1 -0.5 82 -20.4 -4.8
00:40 1005 29.68 835 24.66 -18.1 -0.6 83 -20.4 -4.6
00:45 1005 29.68 835 24.66 -18.1 -0.5 82 -20.5 -4.8
00:50 1005 29.68 835 24.66 -18.1 -0.5 83 -20.3 -4.6
00:55 1005 29.68 835 24.66 -18 -0.4 83 -20.3 -4.5
01:00 1005 29.68 835 24.66 -18 -0.3 82 -20.4 -4.6
01:05 1005 29.68 835 24.66 -18 -0.3 83 -20.2 -4.4
01:10 1005 29.68 835 24.66 -17.8 -0.1 82 -20.2 -4.3
01:15 1005 29.68 835 24.66 -17.8 -0.1 82 -20.2 -4.3
01:20 1005 29.68 835 24.66 -17.9 -0.1 83 -20.2 -4.3
01:25 1005 29.68 835 24.66 -17.8 0.1 82 -20.1 -4.2
01:30 1005 29.68 835 24.66 -17.9 -0.1 83 -20.1 -4.3
01:35 1005 29.68 835 24.66 -17.9 -0.1 82 -20.2 -4.3
01:40 1006 29.71 835 24.66 -17.8 -0.1 82 -20.3 -4.5
01:45 1006 29.71 835 24.66 -17.9 -0.3 81 -20.4 -4.7
01:50 1006 29.71 835 24.66 -17.9 -0.3 82 -20.3 -4.5
01:55 1006 29.71 835 24.66 -17.9 -0.3 82 -20.3 -4.6
02:00 1006 29.71 835 24.66 -18.1 -0.6 83 -20.4 -4.7
02:05 1006 29.71 835 24.66 -18.1 -0.5 83 -20.3 -4.5
02:10 1006 29.71 835 24.66 -18 -0.3 83 -20.2 -4.4
02:15 1006 29.71 835 24.66 -17.9 -0.3 82 -20.3 -4.5
02:20 1006 29.71 835 24.66 -17.9 -0.2 83 -20.2 -4.3
02:25 1006 29.71 835 24.66 -18 -0.4 83 -20.2 -4.4
02:30 1006 29.71 835 24.66 -17.9 -0.2 83 -20.1 -4.2
02:35 1006 29.71 835 24.66 -17.9 -0.1 83 -20.1 -4.1
02:40 1006 29.71 835 24.66 -17.9 -0.1 83 -20.1 -4.2
02:45 1006 29.71 835 24.66 -17.8 -0.1 83 -20.1 -4.1
02:50 1006 29.71 835 24.66 -17.8 0 83 -20.1 -4.1
02:55 1006 29.71 835 24.66 -17.7 0.2 83 -20 -4
03:00 1006 29.71 835 24.66 -17.7 0.2 83 -19.9 -3.8
03:05 1006 29.71 835 24.66 -17.7 0.2 83 -19.9 -3.9
03:10 1006 29.71 835 24.66 -17.7 0.2 83 -19.9 -3.8
03:15 1006 29.71 835 24.66 -17.7 0.2 83 -19.9 -3.8
03:20 1006 29.71 835 24.66 -17.6 0.3 83 -19.8 -3.7
03:25 1006 29.71 835 24.66 -17.6 0.3 83 -19.8 -3.7
03:30 1006 29.71 835 24.66 -17.7 0.2 83 -19.9 -3.8
03:35 1006 29.71 835 24.66 -17.7 0.2 83 -19.8 -3.7
03:40 1006 29.71 835 24.66 -17.7 0.2 83 -19.8 -3.7
03:45 1006 29.71 835 24.66 -17.6 0.3 83 -19.8 -3.7
03:50 1006 29.71 835 24.66 -17.6 0.2 83 -19.8 -3.7
03:55 1006 29.71 835 24.66 -17.7 0.1 83 -20 -3.9
04:00 1006 29.71 835 24.66 -17.7 0.1 83 -20 -4
04:05 1006 29.71 835 24.66 -17.9 -0.1 83 -20.1 -4.1
04:10 1006 29.71 835 24.66 -17.8 0 83 -20 -3.9
04:15 1006 29.71 835 24.66 -17.7 0.1 83 -19.9 -3.9
04:20 1006 29.71 836 24.69 -17.7 0.1 83 -20 -4
04:25 1006 29.71 836 24.69 -17.7 0.1 83 -20 -3.9
04:30 1006 29.71 836 24.69 -17.7 0.1 83 -19.9 -3.9
04:35 1006 29.71 835 24.66 -17.7 0.1 84 -19.9 -3.8
04:40 1006 29.71 835 24.66 -17.6 0.3 83 -19.9 -3.7
04:45 1006 29.71 835 24.66 -17.6 0.3 83 -19.8 -3.6
04:50 1006 29.71 836 24.69 -17.6 0.3 84 -19.8 -3.6
04:55 1006 29.71 835 24.66 -17.6 0.3 83 -19.8 -3.6
05:00 1006 29.71 836 24.69 -17.6 0.3 83 -19.8 -3.6
05:05 1006 29.71 836 24.69 -17.6 0.3 83 -19.8 -3.7
05:10 1006 29.71 835 24.66 -17.6 0.3 83 -19.8 -3.7
05:15 1006 29.71 835 24.66 -17.6 0.4 83 -19.8 -3.6
05:20 1006 29.71 835 24.66 -17.6 0.3 83 -19.8 -3.7
05:25 1006 29.71 835 24.66 -17.6 0.3 83 -19.9 -3.8
05:30 1006 29.71 835 24.66 -17.7 0.2 83 -19.9 -3.8
05:35 1006 29.71 835 24.66 -17.6 0.3 83 -19.8 -3.7
05:40 1006 29.71 836 24.69 -17.6 0.3 82 -19.9 -3.9
05:45 1006 29.71 836 24.69 -17.7 0.2 82 -20 -3.9
05:50 1006 29.71 836 24.69 -17.8 0 83 -20 -4
05:55 1006 29.71 836 24.69 -17.8 -0 83 -20 -4
06:00 1006 29.71 836 24.69 -17.8 -0 83 -20 -4
06:05 1006 29.71 836 24.69 -17.8 0.1 83 -19.9 -3.9
06:10 1006 29.71 836 24.69 -17.7 0.1 83 -20 -4
06:15 1006 29.71 836 24.69 -17.8 -0 83 -20 -4
06:20 1006 29.71 836 24.69 -17.8 0 83 -20 -3.9
06:25 1006 29.71 836 24.69 -17.7 0.1 83 -19.9 -3.8
06:30 1006 29.71 836 24.69 -17.8 -0.1 83 -20 -4.1
06:35 1006 29.71 836 24.69 -17.9 -0.2 83 -20.1 -4.1
06:40 1006 29.71 836 24.69 -17.9 -0.1 83 -20 -4
06:45 1006 29.71 836 24.69 -17.8 0 83 -20 -4
06:50 1006 29.71 836 24.69 -17.8 0 83 -20 -3.9
06:55 1006 29.71 836 24.69 -17.7 0.1 84 -19.8 -3.7
07:00 1006 29.71 836 24.69 -17.6 0.4 83 -19.8 -3.7
07:05 1006 29.71 836 24.69 -17.6 0.3 83 -19.9 -3.8
07:10 1006 29.71 836 24.69 -17.7 0.1 82 -20.1 -4.1
07:15 1006 29.71 836 24.69 -17.8 -0 83 -20.1 -4.1
07:20 1006 29.71 836 24.69 -17.8 0 83 -19.9 -3.9
07:25 1006 29.71 836 24.69 -17.7 0.1 83 -19.9 -3.9
07:30 1006 29.71 836 24.69 -17.9 -0.2 82 -20.3 -4.5
07:35 1006 29.71 836 24.69 -18 -0.4 83 -20.3 -4.5
07:40 1006 29.71 836 24.69 -18 -0.3 84 -20.1 -4.2
07:45 1006 29.71 836 24.69 -17.8 -0.1 83 -20.1 -4.1
07:50 1006 29.71 836 24.69 -17.8 -0.1 83 -20 -4
07:55 1006 29.71 836 24.69 -17.7 0.1 82 -20 -4.1
08:00 1006 29.71 836 24.69 -17.8 0 83 -20 -4
08:05 1006 29.71 836 24.69 -17.6 0.3 82 -20 -4
08:10 1006 29.71 836 24.69 -17.7 0.1 84 -19.8 -3.7
08:15 1006 29.71 836 24.69 -17.6 0.3 83 -19.8 -3.7
08:20 1007 29.74 836 24.69 -17.6 0.3 82 -20 -4
08:25 1007 29.74 836 24.69 -17.8 -0 83 -20 -4
08:30 1007 29.74 836 24.69 -17.8 0 83 -19.9 -3.9
08:35 1007 29.74 836 24.69 -17.8 0 83 -20 -3.9
08:40 1007 29.74 836 24.69 -17.8 -0.1 83 -20 -4.1
08:45 1007 29.74 836 24.69 -17.7 0.1 84 -19.8 -3.6
08:50 1007 29.74 836 24.69 -17.5 0.5 84 -19.6 -3.3
08:55 1007 29.74 836 24.69 -17.3 0.8 82 -19.6 -3.3
09:00 1007 29.74 836 24.69 -17.2 1 82 -19.6 -3.2
09:05 1007 29.74 836 24.69 -17.1 1.2 82 -19.5 -3.1
09:10 1007 29.74 836 24.69 -17 1.5 83 -19.2 -2.5
09:15 1007 29.74 836 24.69 -16.9 1.6 82 -19.3 -2.8
09:20 1007 29.74 836 24.69 -17.1 1.2 83 -19.4 -2.9
09:25 1007 29.74 836 24.69 -17 1.4 83 -19.2 -2.6
09:30 1007 29.74 836 24.69 -16.6 2.1 82 -19.1 -2.3
09:35 1007 29.74 836 24.69 -16.6 2.2 80 -19.2 -2.5
09:40 1007 29.74 836 24.69 -17 1.5 81 -19.5 -3.2
09:45 1007 29.74 836 24.69 -16.8 1.7 83 -19.1 -2.4
09:50 1007 29.74 836 24.69 -16.6 2.2 81 -19.2 -2.5
09:55 1007 29.74 836 24.69 -16.5 2.4 81 -19.1 -2.3
10:00 1007 29.74 836 24.69 -16.3 2.6 80 -19 -2.2
10:05 1007 29.74 836 24.69 -16.2 2.8 83 -18.5 -1.3
10:10 1007 29.74 836 24.69 -15.6 3.8 79 -18.4 -1.2
10:15 1007 29.74 836 24.69 -15.7 3.8 78 -18.6 -1.6
10:20 1007 29.74 836 24.69 -15.9 3.4 80 -18.5 -1.4
10:25 1007 29.74 836 24.69 -15.8 3.6 80 -18.4 -1.2
10:30 1007 29.74 836 24.69 -15.6 4 80 -18.3 -1
10:35 1007 29.74 836 24.69 -15.6 3.8 81 -18.3 -0.9
10:40 1007 29.74 836 24.69 -15.4 4.2 80 -18.2 -0.8
10:45 1007 29.74 836 24.69 -15.2 4.7 80 -17.9 -0.2
10:50 1007 29.74 836 24.69 -14.8 5.3 81 -17.5 0.6
10:55 1007 29.74 836 24.69 -14.7 5.5 78 -17.7 0.1
11:00 1007 29.74 836 24.69 -14.8 5.3 78 -17.8 -0.1
11:05 1007 29.74 836 24.69 -15.1 4.7 78 -18.1 -0.7
11:10 1007 29.74 836 24.69 -15.3 4.4 80 -18 -0.4
11:15 1007 29.74 836 24.69 -14.9 5.2 76 -18.2 -0.8
11:20 1007 29.74 836 24.69 -15.3 4.5 81 -17.9 -0.2
11:25 1007 29.74 836 24.69 -14.8 5.4 78 -17.8 -0
11:30 1007 29.74 836 24.69 -14.5 5.9 77 -17.6 0.3
11:35 1007 29.74 836 24.69 -14.5 6 77 -17.7 0.2
11:40 1007 29.74 836 24.69 -14.5 6 78 -17.6 0.4
11:45 1007 29.74 836 24.69 -14.5 5.9 76 -17.8 -0
11:50 1007 29.74 836 24.69 -14.6 5.7 78 -17.7 0.1
11:55 1007 29.74 836 24.69 -14.7 5.6 77 -17.9 -0.2
12:00 1007 29.74 836 24.69 -14.7 5.6 77 -17.9 -0.2
12:05 1007 29.74 836 24.69 -14.4 6 76 -17.8 0
12:10 1007 29.74 836 24.69 -14.1 6.6 74 -17.8 0
12:15 1007 29.74 836 24.69 -14.4 6 74 -18.1 -0.6
12:20 1007 29.74 836 24.69 -14.5 5.9 73 -18.3 -0.9
12:25 1007 29.74 836 24.69 -14.6 5.7 77 -17.8 -0
12:30 1007 29.74 836 24.69 -14 6.7 74 -17.7 0.2
12:35 1007 29.74 836 24.69 -13.3 8.1 71 -17.4 0.6
12:40 1007 29.74 836 24.69 -13.6 7.6 73 -17.5 0.5
12:45 1007 29.74 836 24.69 -13.8 7.1 73 -17.7 0.2
12:50 1007 29.74 836 24.69 -13.9 7 73 -17.8 0
12:55 1007 29.74 836 24.69 -14 6.9 74 -17.7 0.1
13:00 1007 29.74 836 24.69 -13.8 7.2 74 -17.6 0.4
13:05 1007 29.74 836 24.69 -13.7 7.3 74 -17.4 0.8
13:10 1006 29.71 836 24.69 -13.9 7.1 73 -17.7 0.2
13:15 1006 29.71 836 24.69 -14.5 5.8 77 -17.8 0
13:20 1006 29.71 836 24.69 -14.4 6.1 77 -17.6 0.3
13:25 1006 29.71 836 24.69 -14 6.9 76 -17.4 0.7
13:30 1006 29.71 836 24.69 -13.5 7.8 72 -17.4 0.7
13:35 1006 29.71 836 24.69 -13.8 7.1 75 -17.3 0.8
13:40 1006 29.71 836 24.69 -14 6.8 75 -17.5 0.4
13:45 1006 29.71 836 24.69 -13.8 7.2 74 -17.4 0.6
13:50 1006 29.71 836 24.69 -13.6 7.4 73 -17.5 0.5
13:55 1007 29.74 836 24.69 -13.6 7.5 74 -17.2 1
14:00 1006 29.71 836 24.69 -13.8 7.2 74 -17.5 0.4
14:05 1007 29.74 836 24.69 -13.8 7.2 73 -17.7 0.2
14:10 1006 29.71 836 24.69 -14 6.9 75 -17.5 0.6
14:15 1006 29.71 836 24.69 -13.9 7 76 -17.3 0.8
14:20 1006 29.71 836 24.69 -13.9 7 75 -17.5 0.5
14:25 1006 29.71 836 24.69 -14.2 6.4 74 -17.9 -0.3
14:30 1006 29.71 836 24.69 -14.3 6.2 75 -17.8 -0.1
14:35 1006 29.71 836 24.69 -14.1 6.6 74 -17.8 -0
14:40 1006 29.71 836 24.69 -14.1 6.7 74 -17.7 0.1
14:45 1006 29.71 836 24.69 -14.4 6.1 77 -17.6 0.3
14:50 1006 29.71 836 24.69 -14.7 5.5 77 -17.9 -0.2
14:55 1006 29.71 836 24.69 -14.7 5.5 78 -17.8 -0
15:00 1006 29.71 836 24.69 -14.9 5.2 76 -18.2 -0.8
15:05 1007 29.74 836 24.69 -14.9 5.3 78 -18 -0.3
15:10 1006 29.71 836 24.69 -14.4 6.1 75 -17.8 -0.1
15:15 1006 29.71 836 24.69 -14.9 5.1 78 -17.9 -0.3
15:20 1006 29.71 836 24.69 -14.8 5.3 77 -18.1 -0.6
15:25 1007 29.74 836 24.69 -14.7 5.5 78 -17.8 0
15:30 1007 29.74 836 24.69 -14.5 5.8 77 -17.7 0.1
15:35 1007 29.74 836 24.69 -14.5 5.9 76 -17.9 -0.2
15:40 1007 29.74 836 24.69 -14.5 5.9 77 -17.7 0.1
15:45 1007 29.74 836 24.69 -14.4 6.2 78 -17.5 0.6
15:50 1007 29.74 836 24.69 -14.3 6.4 77 -17.5 0.5
15:55 1007 29.74 836 24.69 -14.3 6.3 75 -17.8 -0.1
16:00 1007 29.74 836 24.69 -14.8 5.4 79 -17.7 0.1
16:05 1007 29.74 836 24.69 -14.7 5.6 77 -17.9 -0.2
16:10 1007 29.74 836 24.69 -14.7 5.5 77 -17.9 -0.2
16:15 1007 29.74 836 24.69 -14.6 5.7 77 -17.8 -0
16:20 1007 29.74 836 24.69 -14.4 6.2 78 -17.5 0.6
16:25 1007 29.74 836 24.69 -14.2 6.4 78 -17.3 0.9
16:30 1007 29.74 836 24.69 -14.7 5.5 77 -17.8 -0.1
16:35 1007 29.74 836 24.69 -14.6 5.7 78 -17.6 0.3
16:40 1007 29.74 836 24.69 -14.7 5.6 79 -17.5 0.4
16:45 1007 29.74 836 24.69 -15.3 4.5 80 -17.9 -0.3
16:50 1007 29.74 836 24.69 -15.2 4.6 80 -17.9 -0.3
16:55 1007 29.74 836 24.69 -15.3 4.4 80 -18 -0.4
17:00 1007 29.74 836 24.69 -15.5 4.1 81 -18.1 -0.6
17:05 1007 29.74 836 24.69 -15.6 3.8 82 -18.1 -0.6
17:10 1007 29.74 836 24.69 -15.4 4.2 80 -18.1 -0.6
17:15 1007 29.74 836 24.69 -15.4 4.4 81 -17.9 -0.1
17:20 1007 29.74 836 24.69 -15.3 4.5 81 -17.9 -0.1
17:25 1007 29.74 837 24.72 -15 5 79 -17.8 -0.1
17:30 1007 29.74 837 24.72 -15.1 4.8 81 -17.7 0.1
17:35 1007 29.74 837 24.72 -15.3 4.5 81 -17.8 -0.1
17:40 1007 29.74 837 24.72 -15.3 4.4 80 -18 -0.4
17:45 1007 29.74 837 24.72 -15.2 4.6 79 -18 -0.5
17:50 1007 29.74 837 24.72 -15.3 4.6 79 -18.1 -0.5
17:55 1008 29.77 837 24.72 -15.2 4.6 81 -17.8 -0.1
18:00 1007 29.74 837 24.72 -15.2 4.6 80 -17.9 -0.2
18:05 1007 29.74 837 24.72 -15.4 4.3 80 -18 -0.5
18:10 1007 29.74 837 24.72 -15.5 4.1 82 -18 -0.3
18:15 1008 29.77 837 24.72 -15.4 4.3 81 -18 -0.4
18:20 1008 29.77 837 24.72 -15.1 4.8 79 -17.9 -0.3
18:25 1008 29.77 837 24.72 -15.1 4.8 80 -17.8 -0
18:30 1008 29.77 837 24.72 -15.2 4.6 81 -17.7 0.1
18:35 1008 29.77 837 24.72 -15.4 4.4 82 -17.8 0
18:40 1008 29.77 837 24.72 -15.4 4.3 82 -17.9 -0.2
18:45 1008 29.77 837 24.72 -15.3 4.4 82 -17.8 -0.1
18:50 1008 29.77 837 24.72 -15.3 4.4 82 -17.8 0
18:55 1008 29.77 837 24.72 -15.4 4.4 82 -17.8 -0.1
19:00 1008 29.77 837 24.72 -15.4 4.3 82 -17.9 -0.2
19:05 1008 29.77 837 24.72 -15.4 4.3 82 -17.8 -0.1
19:10 1008 29.77 837 24.72 -15.3 4.5 81 -17.8 -0.1
19:15 1008 29.77 837 24.72 -15.3 4.4 83 -17.6 0.3
19:20 1008 29.77 837 24.72 -15.3 4.4 82 -17.7 0.1
19:25 1008 29.77 837 24.72 -15.4 4.3 82 -17.8 -0
19:30 1008 29.77 837 24.72 -15.4 4.3 82 -17.8 0
19:35 1008 29.77 837 24.72 -15.4 4.3 83 -17.7 0.1
19:40 1008 29.77 837 24.72 -15.4 4.2 82 -17.8 -0.1
19:45 1008 29.77 837 24.72 -15.4 4.2 83 -17.7 0.1
19:50 1008 29.77 837 24.72 -15.2 4.6 82 -17.6 0.3
19:55 1008 29.77 837 24.72 -15.1 4.7 82 -17.6 0.3
20:00 1008 29.77 837 24.72 -15.2 4.7 82 -17.6 0.3
20:05 1008 29.77 837 24.72 -15.3 4.5 82 -17.6 0.2
20:10 1008 29.77 837 24.72 -15.3 4.5 82 -17.7 0.2
20:15 1008 29.77 837 24.72 -15.2 4.6 82 -17.7 0.1
20:20 1008 29.77 837 24.72 -15.1 4.7 81 -17.7 0.2
20:25 1008 29.77 837 24.72 -15.1 4.8 82 -17.6 0.4
20:30 1008 29.77 837 24.72 -15.1 4.8 81 -17.6 0.3
20:35 1008 29.77 837 24.72 -14.9 5.2 81 -17.5 0.5
20:40 1008 29.77 837 24.72 -14.8 5.4 81 -17.4 0.7
20:45 1008 29.77 837 24.72 -14.7 5.5 80 -17.4 0.7
20:50 1008 29.77 837 24.72 -14.6 5.7 80 -17.3 0.9
20:55 1008 29.77 837 24.72 -14.4 6.1 80 -17.1 1.3
21:00 1008 29.77 837 24.72 -14.3 6.2 80 -17.1 1.2
21:05 1008 29.77 837 24.72 -14.3 6.3 80 -17 1.3
21:10 1008 29.77 837 24.72 -14.1 6.7 79 -17 1.5
21:15 1008 29.77 837 24.72 -14 6.7 79 -17 1.5
21:20 1008 29.77 837 24.72 -14.1 6.7 80 -16.8 1.7
21:25 1008 29.77 837 24.72 -14 6.9 80 -16.7 2
21:30 1008 29.77 837 24.72 -14.2 6.5 81 -16.8 1.8
21:35 1008 29.77 837 24.72 -14.5 5.9 83 -16.9 1.7
21:40 1008 29.77 837 24.72 -14.7 5.5 83 -16.9 1.5
21:45 1008 29.77 837 24.72 -14.7 5.6 83 -16.9 1.6
21:50 1008 29.77 837 24.72 -14.7 5.6 83 -16.9 1.6
21:55 1008 29.77 837 24.72 -14.6 5.8 83 -16.8 1.7
22:00 1008 29.77 837 24.72 -14.5 6 83 -16.7 1.9
22:05 1008 29.77 837 24.72 -14.4 6.1 83 -16.6 2
22:10 1008 29.77 837 24.72 -14.3 6.3 83 -16.6 2.2
22:15 1008 29.77 837 24.72 -14.1 6.5 83 -16.5 2.3
22:20 1008 29.77 837 24.72 -14 6.8 82 -16.5 2.3
22:25 1008 29.77 837 24.72 -13.9 7 81 -16.5 2.2
22:30 1008 29.77 837 24.72 -13.5 7.6 80 -16.3 2.7
22:35 1008 29.77 837 24.72 -13.1 8.4 79 -16.1 3.1
22:40 1007 29.74 837 24.72 -12.9 8.7 81 -15.6 3.9
22:45 1008 29.77 837 24.72 -12.3 10 78 -15.4 4.3
22:50 1008 29.77 837 24.72 -12 10.3 79 -14.9 5.1
22:55 1008 29.77 837 24.72 -11.9 10.7 77 -15.2 4.7
23:00 1008 29.77 837 24.72 -11.7 10.9 77 -15 5
23:05 1008 29.77 837 24.72 -10.8 12.5 74 -14.6 5.7
23:10 1008 29.77 837 24.72 -10.3 13.5 71 -14.7 5.6
23:15 1008 29.77 837 24.72 -10 14.1 70 -14.5 5.9
23:20 1008 29.77 837 24.72 -10.9 12.3 74 -14.7 5.6
23:25 1008 29.77 837 24.72 -11.2 11.9 72 -15.2 4.7
23:30 1008 29.77 837 24.72 -11 12.2 72 -15 4.9
23:35 1008 29.77 837 24.72 -10.5 13.1 70 -14.9 5.2
23:40 1008 29.77 837 24.72 -10.4 13.4 70 -14.8 5.4
23:45 1008 29.77 837 24.72 -10.4 13.2 71 -14.8 5.4
23:50 1008 29.77 837 24.72 -10.4 13.3 71 -14.7 5.5
23:55 1008 29.77 837 24.72 -10.4 13.3 70 -14.8 5.3
24:00 1008 29.77 837 24.72 -10.3 13.5 69 -14.8 5.3